createdAt,value
2022-07-30T00:01:52.904Z,101472.53
2022-07-30T00:04:20.472Z,101469.63
2022-07-30T00:06:47.482Z,101474.16
2022-07-30T00:09:15.175Z,101468.22
2022-07-30T00:11:42.113Z,101476.28
2022-07-30T00:14:09.215Z,101461.72
2022-07-30T00:16:36.358Z,101466.25
2022-07-30T00:19:03.392Z,101465.50
2022-07-30T00:21:35.724Z,101464.09
2022-07-30T00:24:04.534Z,101464.19
2022-07-30T00:26:31.572Z,101464.13
2022-07-30T00:28:58.495Z,101459.16
2022-07-30T00:31:25.513Z,101461.00
2022-07-30T00:33:52.332Z,101461.94
2022-07-30T00:36:19.089Z,101452.34
2022-07-30T00:38:46.151Z,101464.19
2022-07-30T00:41:13.239Z,101443.13
2022-07-30T00:43:43.471Z,101454.72
2022-07-30T00:46:10.485Z,101456.84
2022-07-30T00:48:37.216Z,101453.50
2022-07-30T00:51:04.137Z,101454.13
2022-07-30T00:53:30.923Z,101451.53
2022-07-30T00:55:57.813Z,101459.03
2022-07-30T00:58:25.706Z,101452.59
2022-07-30T01:00:53.687Z,101451.50
2022-07-30T01:03:20.472Z,101454.69
2022-07-30T01:05:47.557Z,101464.19
2022-07-30T01:08:14.564Z,101452.13
2022-07-30T01:10:41.378Z,101452.69
2022-07-30T01:13:08.566Z,101450.00
2022-07-30T01:15:36.061Z,101449.25
2022-07-30T01:18:05.761Z,101447.81
2022-07-30T01:20:38.634Z,101451.66
2022-07-30T01:23:15.410Z,101456.44
2022-07-30T01:26:05.042Z,101450.97
2022-07-30T01:28:41.636Z,101460.41
2022-07-30T01:31:11.226Z,101449.91
2022-07-30T01:33:41.183Z,101453.13
2022-07-30T01:36:10.113Z,101449.34
2022-07-30T01:38:37.466Z,101456.56
2022-07-30T01:41:06.655Z,101445.19
2022-07-30T01:43:35.929Z,101441.84
2022-07-30T01:46:03.908Z,101438.19
2022-07-30T01:48:35.419Z,101441.78
2022-07-30T01:51:04.807Z,101444.97
2022-07-30T01:53:37.224Z,101448.16
2022-07-30T01:56:04.533Z,101450.16
2022-07-30T01:58:36.321Z,101447.34
2022-07-30T02:01:11.990Z,101443.84
2022-07-30T02:03:39.692Z,101444.88
2022-07-30T02:06:22.856Z,101449.88
2022-07-30T02:08:55.680Z,101457.56
2022-07-30T02:11:43.787Z,101449.94
2022-07-30T02:14:22.994Z,101451.06
2022-07-30T02:16:55.068Z,101446.34
2022-07-30T02:19:25.345Z,101456.19
2022-07-30T02:22:06.801Z,101454.13
2022-07-30T02:24:37.892Z,101446.00
2022-07-30T02:27:10.578Z,101449.75
2022-07-30T02:29:41.109Z,101454.94
2022-07-30T02:32:11.829Z,101450.63
2022-07-30T02:34:41.075Z,101441.53
2022-07-30T02:37:09.214Z,101456.28
2022-07-30T02:39:38.565Z,101448.78
2022-07-30T02:42:06.554Z,101459.00
2022-07-30T02:44:34.198Z,101459.38
2022-07-30T02:47:04.702Z,101459.88
2022-07-30T02:49:52.713Z,101458.28
2022-07-30T02:52:19.997Z,101463.75
2022-07-30T02:54:48.410Z,101466.25
2022-07-30T02:57:16.121Z,101461.38
2022-07-30T02:59:44.260Z,101470.31
2022-07-30T03:02:14.651Z,101471.16
2022-07-30T03:04:42.682Z,101469.13
2022-07-30T03:07:10.938Z,101463.09
2022-07-30T03:09:52.453Z,101472.03
2022-07-30T03:12:22.153Z,101462.50
2022-07-30T03:14:48.997Z,101452.44
2022-07-30T03:17:17.597Z,101468.53
2022-07-30T03:19:45.769Z,101461.38
2022-07-30T03:22:13.983Z,101464.50
2022-07-30T03:24:43.667Z,101467.34
2022-07-30T03:27:13.924Z,101466.06
2022-07-30T03:29:44.357Z,101458.91
2022-07-30T03:32:13.556Z,101462.81
2022-07-30T03:34:42.167Z,101470.72
2022-07-30T03:37:11.029Z,101454.56
2022-07-30T03:39:39.252Z,101454.91
2022-07-30T03:42:07.899Z,101460.25
2022-07-30T03:44:35.439Z,101462.72
2022-07-30T03:47:05.853Z,101471.44
2022-07-30T03:49:38.479Z,101469.69
2022-07-30T03:52:09.484Z,101468.81
2022-07-30T03:54:39.815Z,101477.66
2022-07-30T03:57:25.901Z,101470.69
2022-07-30T03:59:52.834Z,101480.47
2022-07-30T04:02:21.297Z,101474.91
2022-07-30T04:05:14.104Z,101480.84
2022-07-30T04:07:44.766Z,101475.91
2022-07-30T04:10:14.245Z,101478.25
2022-07-30T04:13:13.229Z,101478.00
2022-07-30T04:16:36.841Z,101479.59
2022-07-30T04:18:53.765Z,101478.03
2022-07-30T04:21:22.366Z,101496.53
2022-07-30T04:24:03.893Z,101486.91
2022-07-30T04:26:35.065Z,101501.88
2022-07-30T04:29:06.186Z,101501.72
2022-07-30T04:31:39.880Z,101504.88
2022-07-30T04:34:27.529Z,101514.28
2022-07-30T04:36:54.736Z,101512.69
2022-07-30T04:39:21.513Z,101515.50
2022-07-30T04:41:49.735Z,101514.78
2022-07-30T04:44:45.907Z,101511.69
2022-07-30T04:47:35.795Z,101510.91
2022-07-30T04:50:27.885Z,101521.22
2022-07-30T04:52:56.557Z,101512.63
2022-07-30T04:55:29.155Z,101512.63
2022-07-30T04:57:57.448Z,101516.81
2022-07-30T05:00:25.240Z,101518.59
2022-07-30T05:02:52.780Z,101508.56
2022-07-30T05:05:21.274Z,101515.50
2022-07-30T05:07:48.795Z,101523.88
2022-07-30T05:10:15.853Z,101529.19
2022-07-30T05:12:43.703Z,101534.25
2022-07-30T05:15:11.583Z,101523.16
2022-07-30T05:17:41.434Z,101527.56
2022-07-30T05:20:09.943Z,101522.19
2022-07-30T05:22:56.481Z,101536.75
2022-07-30T05:25:24.281Z,101528.28
2022-07-30T05:27:53.952Z,101532.47
2022-07-30T05:30:24.020Z,101533.13
2022-07-30T05:32:55.989Z,101528.81
2022-07-30T05:35:23.602Z,101523.22
2022-07-30T05:37:50.365Z,101527.91
2022-07-30T05:40:19.857Z,101534.88
2022-07-30T05:43:08.679Z,101537.53
2022-07-30T05:45:37.757Z,101538.03
2022-07-30T05:48:05.065Z,101532.16
2022-07-30T05:50:32.038Z,101531.56
2022-07-30T05:52:58.802Z,101537.16
2022-07-30T05:55:51.620Z,101540.31
2022-07-30T05:58:38.357Z,101540.25
2022-07-30T06:01:05.622Z,101548.16
2022-07-30T06:03:33.922Z,101539.13
2022-07-30T06:06:26.581Z,101537.59
2022-07-30T06:08:53.723Z,101529.78
2022-07-30T06:11:21.166Z,101535.75
2022-07-30T06:13:48.446Z,101529.91
2022-07-30T06:16:15.468Z,101540.78
2022-07-30T06:18:42.348Z,101544.69
2022-07-30T06:21:17.425Z,101546.38
2022-07-30T06:24:04.344Z,101554.16
2022-07-30T06:26:44.282Z,101552.19
2022-07-30T06:29:11.842Z,101551.91
2022-07-30T06:31:41.621Z,101553.00
2022-07-30T06:34:11.051Z,101544.09
2022-07-30T06:36:41.372Z,101540.75
2022-07-30T06:39:56.431Z,101545.28
2022-07-30T06:42:29.082Z,101541.47
2022-07-30T06:45:15.679Z,101549.72
2022-07-30T06:48:08.586Z,101540.59
2022-07-30T06:50:36.970Z,101557.44
2022-07-30T06:53:04.495Z,101547.38
2022-07-30T06:55:51.153Z,101566.94
2022-07-30T06:58:25.658Z,101568.03
2022-07-30T07:01:18.828Z,101556.53
2022-07-30T07:03:45.680Z,101554.66
2022-07-30T07:06:12.360Z,101555.88
2022-07-30T07:08:40.594Z,101572.94
2022-07-30T07:11:09.575Z,101570.47
2022-07-30T07:13:49.137Z,101566.06
2022-07-30T07:16:50.236Z,101576.66
2022-07-30T07:20:01.254Z,101562.63
2022-07-30T07:22:35.086Z,101560.44
2022-07-30T07:25:02.186Z,101573.31
2022-07-30T07:27:34.464Z,101575.16
2022-07-30T07:30:04.995Z,101578.09
2022-07-30T07:32:36.089Z,101567.06
2022-07-30T07:35:03.876Z,101573.59
2022-07-30T07:37:30.996Z,101571.78
2022-07-30T07:39:57.778Z,101565.84
2022-07-30T07:42:26.089Z,101564.84
2022-07-30T07:44:53.436Z,101575.22
2022-07-30T07:47:20.283Z,101581.66
2022-07-30T07:50:02.903Z,101582.59
2022-07-30T07:52:31.010Z,101577.53
2022-07-30T07:54:57.957Z,101575.50
2022-07-30T08:00:23.779Z,101560.59
2022-07-30T08:05:58.209Z,101554.84
2022-07-30T08:09:08.291Z,101557.50
2022-07-30T08:12:00.380Z,101555.47
2022-07-30T08:14:56.192Z,101565.34
2022-07-30T08:17:42.529Z,101568.84
2022-07-30T08:20:23.025Z,101564.72
2022-07-30T08:22:51.051Z,101558.44
2022-07-30T08:25:22.132Z,101560.47
2022-07-30T08:27:52.673Z,101541.41
2022-07-30T08:30:20.944Z,101547.56
2022-07-30T08:32:50.232Z,101557.09
2022-07-30T08:35:20.528Z,101543.91
2022-07-30T08:37:48.599Z,101543.94
2022-07-30T08:40:19.559Z,101541.84
2022-07-30T08:43:03.955Z,101541.63
2022-07-30T08:45:38.674Z,101554.50
2022-07-30T08:48:26.717Z,101540.00
2022-07-30T08:50:55.953Z,101529.66
2022-07-30T08:53:56.442Z,101529.50
2022-07-30T08:56:24.959Z,101540.97
2022-07-30T08:58:52.210Z,101554.66
2022-07-30T09:01:19.692Z,101563.63
2022-07-30T09:03:50.759Z,101553.63
2022-07-30T09:06:18.462Z,101553.41
2022-07-30T09:08:46.142Z,101565.06
2022-07-30T09:11:13.402Z,101560.75
2022-07-30T09:13:50.752Z,101563.50
2022-07-30T09:16:27.982Z,101562.41
2022-07-30T09:18:57.866Z,101578.56
2022-07-30T09:21:26.772Z,101568.31
2022-07-30T09:24:10.065Z,101561.56
2022-07-30T09:27:07.799Z,101571.84
2022-07-30T09:30:01.576Z,101573.91
2022-07-30T09:32:58.843Z,101562.28
2022-07-30T09:35:25.842Z,101567.63
2022-07-30T09:38:14.212Z,101563.94
2022-07-30T09:41:08.054Z,101548.81
2022-07-30T09:43:52.126Z,101551.22
2022-07-30T09:46:26.025Z,101551.63
2022-07-30T09:48:53.532Z,101558.75
2022-07-30T09:51:56.206Z,101545.28
2022-07-30T09:54:51.383Z,101536.28
2022-07-30T09:57:27.132Z,101534.50
2022-07-30T10:00:29.996Z,101542.47
2022-07-30T10:03:34.252Z,101542.75
2022-07-30T10:06:41.962Z,101544.47
2022-07-30T10:09:30.516Z,101549.13
2022-07-30T10:12:04.144Z,101551.59
2022-07-30T10:14:42.543Z,101544.28
2022-07-30T10:17:14.725Z,101535.56
2022-07-30T10:19:47.262Z,101534.50
2022-07-30T10:22:40.465Z,101544.59
2022-07-30T10:25:48.859Z,101542.16
2022-07-30T10:28:39.593Z,101553.22
2022-07-30T10:31:46.416Z,101536.94
2022-07-30T10:33:57.821Z,101548.59
2022-07-30T10:36:26.315Z,101542.69
2022-07-30T10:38:54.437Z,101534.56
2022-07-30T10:41:43.333Z,101554.47
2022-07-30T10:45:17.623Z,101544.84
2022-07-30T10:47:54.351Z,101531.75
2022-07-30T10:50:32.416Z,101550.72
2022-07-30T10:53:03.041Z,101530.59
2022-07-30T10:55:37.615Z,101537.75
2022-07-30T10:58:18.046Z,101515.38
2022-07-30T11:00:57.317Z,101536.47
2022-07-30T11:06:24.267Z,101535.22
2022-07-30T11:08:57.222Z,101515.59
2022-07-30T11:11:59.470Z,101540.13
2022-07-30T11:14:13.175Z,101532.53
2022-07-30T11:16:43.228Z,101530.81
2022-07-30T11:19:55.316Z,101530.69
2022-07-30T11:22:25.830Z,101519.50
2022-07-30T11:24:53.578Z,101517.84
2022-07-30T11:27:41.457Z,101524.38
2022-07-30T11:30:29.102Z,101519.03
2022-07-30T11:33:07.209Z,101524.88
2022-07-30T11:36:05.761Z,101507.69
2022-07-30T11:38:58.969Z,101512.41
2022-07-30T11:41:32.851Z,101508.41
2022-07-30T11:44:29.131Z,101505.25
2022-07-30T11:46:58.187Z,101517.03
2022-07-30T11:50:07.754Z,101516.53
2022-07-30T11:52:35.062Z,101511.88
2022-07-30T11:55:05.623Z,101498.88
2022-07-30T11:57:43.079Z,101485.84
2022-07-30T12:00:10.601Z,101499.53
2022-07-30T12:03:02.450Z,101514.69
2022-07-30T12:05:34.589Z,101492.03
2022-07-30T12:08:07.221Z,101505.63
2022-07-30T12:10:39.904Z,101502.75
2022-07-30T12:13:16.573Z,101500.59
2022-07-30T12:15:47.416Z,101494.75
2022-07-30T12:18:26.751Z,101521.22
2022-07-30T12:20:59.362Z,101515.84
2022-07-30T12:23:28.377Z,101497.97
2022-07-30T12:26:01.109Z,101494.72
2022-07-30T12:28:31.188Z,101495.47
2022-07-30T12:31:04.644Z,101491.47
2022-07-30T12:33:32.453Z,101489.38
2022-07-30T12:36:00.986Z,101488.84
2022-07-30T12:38:51.389Z,101487.25
2022-07-30T12:41:19.708Z,101489.50
2022-07-30T12:44:03.909Z,101494.50
2022-07-30T12:46:38.504Z,101485.00
2022-07-30T12:49:08.226Z,101482.69
2022-07-30T12:52:00.105Z,101481.13
2022-07-30T12:54:32.512Z,101477.97
2022-07-30T12:57:07.748Z,101480.09
2022-07-30T12:59:35.954Z,101476.63
2022-07-30T13:02:03.738Z,101474.84
2022-07-30T13:04:36.087Z,101455.78
2022-07-30T13:07:16.189Z,101470.16
2022-07-30T13:09:46.076Z,101462.97
2022-07-30T13:12:15.671Z,101448.19
2022-07-30T13:14:42.613Z,101469.06
2022-07-30T13:17:10.904Z,101454.09
2022-07-30T13:19:46.087Z,101465.56
2022-07-30T13:22:13.825Z,101457.19
2022-07-30T13:24:41.096Z,101462.09
2022-07-30T13:27:08.953Z,101455.19
2022-07-30T13:29:35.800Z,101451.97
2022-07-30T13:32:02.931Z,101451.53
2022-07-30T13:34:34.807Z,101460.03
2022-07-30T13:37:06.161Z,101453.59
2022-07-30T13:39:33.133Z,101455.59
2022-07-30T13:41:59.937Z,101465.34
2022-07-30T13:44:29.080Z,101463.09
2022-07-30T13:46:59.996Z,101449.66
2022-07-30T13:49:29.806Z,101446.84
2022-07-30T13:52:00.159Z,101453.03
2022-07-30T13:54:27.330Z,101431.25
2022-07-30T13:56:57.307Z,101434.13
2022-07-30T13:59:24.200Z,101444.97
2022-07-30T14:01:51.600Z,101434.88
2022-07-30T14:04:18.997Z,101431.88
2022-07-30T14:06:46.249Z,101433.78
2022-07-30T14:09:13.954Z,101433.63
2022-07-30T14:11:40.950Z,101433.19
2022-07-30T14:14:08.049Z,101436.94
2022-07-30T14:16:45.045Z,101437.19
2022-07-30T14:19:23.661Z,101420.22
2022-07-30T14:21:53.259Z,101426.53
2022-07-30T14:24:30.847Z,101423.88
2022-07-30T14:27:01.434Z,101399.91
2022-07-30T14:29:30.352Z,101424.38
2022-07-30T14:31:59.170Z,101428.38
2022-07-30T14:34:33.714Z,101426.31
2022-07-30T14:37:03.538Z,101437.34
2022-07-30T14:39:33.693Z,101418.56
2022-07-30T14:42:01.198Z,101419.22
2022-07-30T14:44:35.232Z,101419.72
2022-07-30T14:47:03.432Z,101419.81
2022-07-30T14:49:34.327Z,101433.78
2022-07-30T14:52:02.955Z,101418.16
2022-07-30T14:54:34.269Z,101409.53
2022-07-30T14:57:03.473Z,101398.38
2022-07-30T14:59:31.324Z,101415.22
2022-07-30T15:01:58.749Z,101431.31
2022-07-30T15:04:26.153Z,101414.25
2022-07-30T15:06:53.213Z,101432.75
2022-07-30T15:09:23.722Z,101415.66
2022-07-30T15:12:08.902Z,101412.06
2022-07-30T15:14:40.412Z,101416.69
2022-07-30T15:17:08.711Z,101417.88
2022-07-30T15:19:50.048Z,101422.72
2022-07-30T15:22:19.931Z,101408.66
2022-07-30T15:24:47.672Z,101410.34
2022-07-30T15:27:16.994Z,101401.41
2022-07-30T15:29:44.945Z,101417.50
2022-07-30T15:32:17.703Z,101416.78
2022-07-30T15:34:45.499Z,101412.31
2022-07-30T15:37:13.753Z,101415.44
2022-07-30T15:39:41.256Z,101403.78
2022-07-30T15:42:08.547Z,101400.88
2022-07-30T15:44:35.589Z,101412.59
2022-07-30T15:47:13.130Z,101396.94
2022-07-30T15:49:52.205Z,101384.91
2022-07-30T15:52:19.334Z,101400.56
2022-07-30T15:54:50.075Z,101392.09
2022-07-30T15:57:17.316Z,101392.88
2022-07-30T15:59:47.429Z,101401.41
2022-07-30T16:02:23.924Z,101402.03
2022-07-30T16:05:51.509Z,101399.66
2022-07-30T16:08:07.005Z,101391.81
2022-07-30T16:10:49.413Z,101402.97
2022-07-30T16:13:29.576Z,101389.09
2022-07-30T16:15:57.040Z,101395.97
2022-07-30T16:18:38.664Z,101387.81
2022-07-30T16:21:20.432Z,101374.75
2022-07-30T16:24:01.041Z,101373.34
2022-07-30T16:26:38.470Z,101369.16
2022-07-30T16:29:16.846Z,101386.03
2022-07-30T16:31:44.726Z,101381.59
2022-07-30T16:34:23.096Z,101378.34
2022-07-30T16:36:58.668Z,101363.41
2022-07-30T16:39:26.508Z,101370.63
2022-07-30T16:41:54.114Z,101375.44
2022-07-30T16:44:21.826Z,101373.44
2022-07-30T16:46:52.197Z,101362.00
2022-07-30T16:49:19.686Z,101367.41
2022-07-30T16:51:50.111Z,101367.31
2022-07-30T16:54:20.148Z,101353.00
2022-07-30T16:57:00.901Z,101378.00
2022-07-30T16:59:38.078Z,101363.78
2022-07-30T17:02:05.281Z,101363.56
2022-07-30T17:04:34.828Z,101367.75
2022-07-30T17:07:01.850Z,101374.75
2022-07-30T17:09:31.918Z,101357.03
2022-07-30T17:12:09.629Z,101382.88
2022-07-30T17:14:42.518Z,101367.06
2022-07-30T17:17:14.891Z,101359.72
2022-07-30T17:19:43.272Z,101359.63
2022-07-30T17:22:11.284Z,101351.94
2022-07-30T17:24:40.705Z,101345.47
2022-07-30T17:27:15.755Z,101348.63
2022-07-30T17:29:51.997Z,101357.03
2022-07-30T17:32:24.060Z,101357.47
2022-07-30T17:34:51.781Z,101351.88
2022-07-30T17:37:19.141Z,101363.09
2022-07-30T17:40:28.416Z,101351.06
2022-07-30T17:42:35.799Z,101359.16
2022-07-30T17:45:07.772Z,101372.19
2022-07-30T17:47:49.315Z,101358.38
2022-07-30T17:50:17.597Z,101363.22
2022-07-30T17:52:45.030Z,101365.06
2022-07-30T17:55:14.243Z,101358.69
2022-07-30T17:57:41.973Z,101351.94
2022-07-30T18:00:10.345Z,101340.78
2022-07-30T18:02:37.517Z,101354.22
2022-07-30T18:05:12.283Z,101353.63
2022-07-30T18:07:39.189Z,101348.59
2022-07-30T18:10:08.069Z,101357.56
2022-07-30T18:12:38.309Z,101352.13
2022-07-30T18:15:06.720Z,101359.31
2022-07-30T18:17:33.511Z,101358.25
2022-07-30T18:20:03.282Z,101362.56
2022-07-30T18:22:32.090Z,101355.88
2022-07-30T18:25:01.245Z,101356.66
2022-07-30T18:27:28.138Z,101366.41
2022-07-30T18:29:55.225Z,101355.41
2022-07-30T18:32:23.567Z,101367.69
2022-07-30T18:34:52.794Z,101367.09
2022-07-30T18:37:19.649Z,101358.50
2022-07-30T18:39:46.462Z,101352.84
2022-07-30T18:42:13.573Z,101355.19
2022-07-30T18:44:40.327Z,101363.53
2022-07-30T18:47:07.226Z,101349.88
2022-07-30T18:49:37.022Z,101364.44
2022-07-30T18:52:05.235Z,101356.78
2022-07-30T18:54:32.262Z,101370.91
2022-07-30T18:56:59.174Z,101366.53
2022-07-30T18:59:28.524Z,101365.22
2022-07-30T19:01:55.525Z,101366.25
2022-07-30T19:04:24.117Z,101360.84
2022-07-30T19:06:52.484Z,101364.44
2022-07-30T19:09:19.881Z,101361.69
2022-07-30T19:11:49.225Z,101367.22
2022-07-30T19:14:17.250Z,101364.16
2022-07-30T19:16:44.589Z,101365.56
2022-07-30T19:19:14.945Z,101370.88
2022-07-30T19:21:42.054Z,101362.75
2022-07-30T19:24:10.093Z,101358.41
2022-07-30T19:26:39.823Z,101358.47
2022-07-30T19:29:10.465Z,101353.34
2022-07-30T19:31:37.342Z,101351.16
2022-07-30T19:34:10.779Z,101356.81
2022-07-30T19:36:38.105Z,101361.97
2022-07-30T19:39:07.435Z,101363.25
2022-07-30T19:41:40.779Z,101366.41
2022-07-30T19:44:09.094Z,101376.06
2022-07-30T19:46:36.603Z,101375.28
2022-07-30T19:49:04.026Z,101376.06
2022-07-30T19:52:07.258Z,101375.03
2022-07-30T19:54:20.345Z,101383.38
2022-07-30T19:56:48.491Z,101387.41
2022-07-30T19:59:15.635Z,101385.47
2022-07-30T20:01:43.020Z,101388.34
2022-07-30T20:04:11.154Z,101392.63
2022-07-30T20:06:41.110Z,101392.97
2022-07-30T20:09:15.101Z,101396.56
2022-07-30T20:11:43.672Z,101403.94
2022-07-30T20:14:10.505Z,101406.28
2022-07-30T20:16:39.918Z,101409.91
2022-07-30T20:19:10.377Z,101403.91
2022-07-30T20:21:56.111Z,101407.13
2022-07-30T20:24:27.533Z,101400.84
2022-07-30T20:26:56.347Z,101409.25
2022-07-30T20:29:23.216Z,101410.16
2022-07-30T20:31:51.266Z,101406.38
2022-07-30T20:34:26.026Z,101404.66
2022-07-30T20:36:56.404Z,101414.06
2022-07-30T20:39:26.250Z,101405.91
2022-07-30T20:42:07.789Z,101415.91
2022-07-30T20:44:36.565Z,101410.84
2022-07-30T20:47:08.332Z,101417.94
2022-07-30T20:49:35.967Z,101427.84
2022-07-30T20:52:03.585Z,101423.53
2022-07-30T20:54:32.430Z,101422.66
2022-07-30T20:57:00.065Z,101420.13
2022-07-30T20:59:27.537Z,101414.47
2022-07-30T21:01:55.754Z,101416.16
2022-07-30T21:04:25.446Z,101423.44
2022-07-30T21:06:53.026Z,101410.31
2022-07-30T21:09:22.944Z,101402.84
2022-07-30T21:11:54.389Z,101416.34
2022-07-30T21:14:21.966Z,101409.94
2022-07-30T21:16:56.008Z,101403.88
2022-07-30T21:19:23.677Z,101417.22
2022-07-30T21:21:53.348Z,101414.38
2022-07-30T21:24:22.493Z,101419.41
2022-07-30T21:26:54.790Z,101415.44
2022-07-30T21:29:22.669Z,101414.25
2022-07-30T21:32:01.335Z,101406.59
2022-07-30T21:34:35.976Z,101413.03
2022-07-30T21:37:15.521Z,101404.66
2022-07-30T21:39:43.188Z,101399.94
2022-07-30T21:42:09.925Z,101399.50
2022-07-30T21:44:37.684Z,101412.47
2022-07-30T21:47:10.483Z,101404.84
2022-07-30T21:49:39.856Z,101401.94
2022-07-30T21:52:09.076Z,101395.59
2022-07-30T21:57:34.473Z,101401.19
2022-07-30T22:00:07.176Z,101394.91
2022-07-30T22:02:38.327Z,101394.59
2022-07-30T22:05:20.145Z,101400.97
2022-07-30T22:07:48.824Z,101405.09
2022-07-30T22:10:15.748Z,101406.72
2022-07-30T22:12:48.772Z,101410.63
2022-07-30T22:15:15.615Z,101415.03
2022-07-30T22:17:58.639Z,101418.56
2022-07-30T22:20:32.031Z,101424.94
2022-07-30T22:23:01.765Z,101426.56
2022-07-30T22:25:41.586Z,101422.88
2022-07-30T22:28:14.338Z,101415.28
2022-07-30T22:30:48.663Z,101413.00
2022-07-30T22:33:19.753Z,101418.25
2022-07-30T22:35:49.659Z,101419.03
2022-07-30T22:38:17.385Z,101419.03
2022-07-30T22:40:46.634Z,101429.66
2022-07-30T22:43:15.988Z,101415.88
2022-07-30T22:45:48.594Z,101421.38
2022-07-30T22:48:16.777Z,101417.84
2022-07-30T22:50:43.481Z,101428.41
2022-07-30T22:53:23.757Z,101430.50
2022-07-30T22:55:58.758Z,101421.09
2022-07-30T22:58:26.638Z,101419.50
2022-07-30T23:00:53.809Z,101426.66
2022-07-30T23:03:21.224Z,101430.97
2022-07-30T23:05:55.825Z,101432.97
2022-07-30T23:08:29.715Z,101433.34
2022-07-30T23:10:59.572Z,101431.00
2022-07-30T23:12:31.225Z,101405.31
2022-07-30T23:13:27.413Z,101438.91
2022-07-30T23:15:54.216Z,101441.28
2022-07-30T23:18:20.991Z,101438.91
2022-07-30T23:20:47.776Z,101441.69
2022-07-30T23:23:15.089Z,101425.03
2022-07-30T23:25:41.857Z,101429.81
2022-07-30T23:28:08.638Z,101410.41
2022-07-30T23:30:35.875Z,101404.47
2022-07-30T23:33:02.841Z,101395.38
2022-07-30T23:35:30.308Z,101393.78
2022-07-30T23:37:57.384Z,101385.84
2022-07-30T23:40:24.161Z,101390.16
2022-07-30T23:42:51.875Z,101390.16
2022-07-30T23:45:18.985Z,101390.16
2022-07-30T23:48:01.994Z,101395.72
2022-07-30T23:50:31.184Z,101392.59
2022-07-30T23:52:57.865Z,101392.53
2022-07-30T23:55:24.698Z,101401.66
2022-07-30T23:57:51.657Z,101412.22
